sensor_id;sensor_type;location;lat;lon;timestamp;P1;durP1;ratioP1;P2;durP2;ratioP2
33794;SDS011;51430;52.242;21.118;2023-02-28T00:02:03;29.70;;;21.60;;
33794;SDS011;51430;52.242;21.118;2023-02-28T00:04:50;28.60;;;21.20;;
33794;SDS011;51430;52.242;21.118;2023-02-28T00:07:39;26.90;;;20.60;;
33794;SDS011;51430;52.242;21.118;2023-02-28T00:10:27;29.60;;;21.50;;
33794;SDS011;51430;52.242;21.118;2023-02-28T00:13:15;26.70;;;20.70;;
33794;SDS011;51430;52.242;21.118;2023-02-28T00:16:03;26.80;;;21.70;;
33794;SDS011;51430;52.242;21.118;2023-02-28T00:18:52;27.30;;;20.70;;
33794;SDS011;51430;52.242;21.118;2023-02-28T00:21:39;29.60;;;21.30;;
33794;SDS011;51430;52.242;21.118;2023-02-28T00:24:28;27.90;;;21.00;;
33794;SDS011;51430;52.242;21.118;2023-02-28T00:27:14;28.10;;;20.90;;
33794;SDS011;51430;52.242;21.118;2023-02-28T00:30:01;27.90;;;20.90;;
33794;SDS011;51430;52.242;21.118;2023-02-28T00:32:47;27.70;;;21.00;;
33794;SDS011;51430;52.242;21.118;2023-02-28T00:35:34;27.70;;;20.00;;
33794;SDS011;51430;52.242;21.118;2023-02-28T00:38:21;27.40;;;21.10;;
33794;SDS011;51430;52.242;21.118;2023-02-28T00:41:08;26.60;;;20.20;;
33794;SDS011;51430;52.242;21.118;2023-02-28T00:43:55;27.50;;;21.10;;
33794;SDS011;51430;52.242;21.118;2023-02-28T00:46:42;27.80;;;20.80;;
33794;SDS011;51430;52.242;21.118;2023-02-28T00:49:28;26.70;;;20.30;;
33794;SDS011;51430;52.242;21.118;2023-02-28T00:52:15;30.30;;;21.50;;
33794;SDS011;51430;52.242;21.118;2023-02-28T00:55:02;27.90;;;21.30;;
33794;SDS011;51430;52.242;21.118;2023-02-28T00:57:48;26.50;;;20.00;;
33794;SDS011;51430;52.242;21.118;2023-02-28T01:00:35;28.10;;;20.30;;
33794;SDS011;51430;52.242;21.118;2023-02-28T01:03:22;29.00;;;20.80;;
33794;SDS011;51430;52.242;21.118;2023-02-28T01:06:09;28.70;;;21.40;;
33794;SDS011;51430;52.242;21.118;2023-02-28T01:08:56;29.50;;;20.90;;
33794;SDS011;51430;52.242;21.118;2023-02-28T01:11:42;31.50;;;22.00;;
33794;SDS011;51430;52.242;21.118;2023-02-28T01:14:30;32.50;;;22.80;;
33794;SDS011;51430;52.242;21.118;2023-02-28T01:17:17;34.70;;;23.30;;
33794;SDS011;51430;52.242;21.118;2023-02-28T01:20:06;35.50;;;23.50;;
33794;SDS011;51430;52.242;21.118;2023-02-28T01:22:53;36.00;;;23.40;;
33794;SDS011;51430;52.242;21.118;2023-02-28T01:25:39;34.70;;;23.70;;
33794;SDS011;51430;52.242;21.118;2023-02-28T01:28:26;40.30;;;25.90;;
33794;SDS011;51430;52.242;21.118;2023-02-28T01:31:13;42.40;;;26.90;;
33794;SDS011;51430;52.242;21.118;2023-02-28T01:34:00;39.70;;;25.60;;
33794;SDS011;51430;52.242;21.118;2023-02-28T01:36:47;37.40;;;24.50;;
33794;SDS011;51430;52.242;21.118;2023-02-28T01:39:34;38.10;;;23.90;;
33794;SDS011;51430;52.242;21.118;2023-02-28T01:42:23;38.10;;;24.00;;
33794;SDS011;51430;52.242;21.118;2023-02-28T01:45:21;36.10;;;23.80;;
33794;SDS011;51430;52.242;21.118;2023-02-28T01:48:12;36.60;;;23.70;;
33794;SDS011;51430;52.242;21.118;2023-02-28T01:50:59;30.70;;;21.90;;
33794;SDS011;51430;52.242;21.118;2023-02-28T01:53:52;32.10;;;21.80;;
33794;SDS011;51430;52.242;21.118;2023-02-28T01:56:47;29.70;;;20.40;;
33794;SDS011;51430;52.242;21.118;2023-02-28T02:02:36;33.10;;;21.50;;
33794;SDS011;51430;52.242;21.118;2023-02-28T02:05:24;33.00;;;21.80;;
33794;SDS011;51430;52.242;21.118;2023-02-28T02:08:20;29.90;;;20.40;;
33794;SDS011;51430;52.242;21.118;2023-02-28T02:11:16;37.10;;;22.40;;
33794;SDS011;51430;52.242;21.118;2023-02-28T02:17:09;30.00;;;21.60;;
33794;SDS011;51430;52.242;21.118;2023-02-28T02:20:16;31.30;;;22.00;;
33794;SDS011;51430;52.242;21.118;2023-02-28T02:26:42;30.90;;;21.20;;
33794;SDS011;51430;52.242;21.118;2023-02-28T02:33:02;30.90;;;21.30;;
33794;SDS011;51430;52.242;21.118;2023-02-28T02:36:06;29.70;;;20.80;;
33794;SDS011;51430;52.242;21.118;2023-02-28T02:38:57;31.30;;;21.60;;
33794;SDS011;51430;52.242;21.118;2023-02-28T02:41:52;34.80;;;23.50;;
33794;SDS011;51430;52.242;21.118;2023-02-28T02:44:42;33.00;;;22.00;;
33794;SDS011;51430;52.242;21.118;2023-02-28T02:47:36;32.80;;;22.80;;
33794;SDS011;51430;52.242;21.118;2023-02-28T02:50:26;36.00;;;23.50;;
33794;SDS011;51430;52.242;21.118;2023-02-28T02:53:19;39.30;;;26.30;;
33794;SDS011;51430;52.242;21.118;2023-02-28T02:56:10;40.20;;;25.50;;
33794;SDS011;51430;52.242;21.118;2023-02-28T02:59:06;45.40;;;27.50;;
33794;SDS011;51430;52.242;21.118;2023-02-28T03:01:57;50.70;;;31.60;;
33794;SDS011;51430;52.242;21.118;2023-02-28T03:04:53;60.50;;;35.20;;
33794;SDS011;51430;52.242;21.118;2023-02-28T03:07:47;66.60;;;38.10;;
33794;SDS011;51430;52.242;21.118;2023-02-28T03:10:38;146.70;;;67.10;;
33794;SDS011;51430;52.242;21.118;2023-02-28T03:20:13;241.80;;;106.20;;
33794;SDS011;51430;52.242;21.118;2023-02-28T03:23:01;287.50;;;125.50;;
33794;SDS011;51430;52.242;21.118;2023-02-28T03:34:39;210.70;;;82.30;;
33794;SDS011;51430;52.242;21.118;2023-02-28T03:37:34;215.20;;;102.20;;
33794;SDS011;51430;52.242;21.118;2023-02-28T03:40:25;191.60;;;94.60;;
33794;SDS011;51430;52.242;21.118;2023-02-28T03:43:21;173.60;;;88.10;;
33794;SDS011;51430;52.242;21.118;2023-02-28T03:46:12;162.00;;;85.10;;
33794;SDS011;51430;52.242;21.118;2023-02-28T03:49:08;136.50;;;72.60;;
33794;SDS011;51430;52.242;21.118;2023-02-28T03:52:02;124.70;;;66.70;;
33794;SDS011;51430;52.242;21.118;2023-02-28T03:54:53;109.00;;;61.00;;
33794;SDS011;51430;52.242;21.118;2023-02-28T03:57:50;98.30;;;57.20;;
33794;SDS011;51430;52.242;21.118;2023-02-28T04:00:49;81.10;;;49.10;;
33794;SDS011;51430;52.242;21.118;2023-02-28T04:03:45;77.90;;;48.30;;
33794;SDS011;51430;52.242;21.118;2023-02-28T04:06:32;70.80;;;44.60;;
33794;SDS011;51430;52.242;21.118;2023-02-28T04:09:20;59.70;;;40.60;;
33794;SDS011;51430;52.242;21.118;2023-02-28T04:12:07;61.30;;;40.80;;
33794;SDS011;51430;52.242;21.118;2023-02-28T04:14:53;58.60;;;39.20;;
33794;SDS011;51430;52.242;21.118;2023-02-28T04:17:40;59.00;;;39.10;;
33794;SDS011;51430;52.242;21.118;2023-02-28T04:20:26;53.00;;;37.30;;
33794;SDS011;51430;52.242;21.118;2023-02-28T04:23:13;54.10;;;36.80;;
33794;SDS011;51430;52.242;21.118;2023-02-28T04:26:00;50.90;;;34.70;;
33794;SDS011;51430;52.242;21.118;2023-02-28T04:28:47;51.60;;;36.20;;
33794;SDS011;51430;52.242;21.118;2023-02-28T04:31:33;47.40;;;32.30;;
33794;SDS011;51430;52.242;21.118;2023-02-28T04:34:20;47.30;;;33.00;;
33794;SDS011;51430;52.242;21.118;2023-02-28T04:37:07;50.90;;;34.00;;
33794;SDS011;51430;52.242;21.118;2023-02-28T04:39:59;43.20;;;31.00;;
33794;SDS011;51430;52.242;21.118;2023-02-28T04:42:45;45.50;;;31.60;;
33794;SDS011;51430;52.242;21.118;2023-02-28T04:45:32;43.80;;;32.00;;
33794;SDS011;51430;52.242;21.118;2023-02-28T04:48:20;45.50;;;31.50;;
33794;SDS011;51430;52.242;21.118;2023-02-28T04:51:08;40.30;;;31.10;;
33794;SDS011;51430;52.242;21.118;2023-02-28T04:53:56;41.60;;;30.10;;
33794;SDS011;51430;52.242;21.118;2023-02-28T04:56:43;42.70;;;30.90;;
33794;SDS011;51430;52.242;21.118;2023-02-28T04:59:29;43.80;;;31.60;;
33794;SDS011;51430;52.242;21.118;2023-02-28T05:02:16;43.90;;;31.30;;
33794;SDS011;51430;52.242;21.118;2023-02-28T05:05:03;44.10;;;30.30;;
33794;SDS011;51430;52.242;21.118;2023-02-28T05:07:50;38.60;;;28.80;;
33794;SDS011;51430;52.242;21.118;2023-02-28T05:10:36;39.00;;;27.80;;
33794;SDS011;51430;52.242;21.118;2023-02-28T05:13:23;34.80;;;26.50;;
33794;SDS011;51430;52.242;21.118;2023-02-28T05:16:10;33.40;;;25.10;;
33794;SDS011;51430;52.242;21.118;2023-02-28T05:18:57;37.10;;;27.00;;
33794;SDS011;51430;52.242;21.118;2023-02-28T05:21:53;36.30;;;26.70;;
33794;SDS011;51430;52.242;21.118;2023-02-28T05:24:41;36.70;;;26.70;;
33794;SDS011;51430;52.242;21.118;2023-02-28T05:27:29;34.70;;;25.10;;
33794;SDS011;51430;52.242;21.118;2023-02-28T05:30:16;36.90;;;25.30;;
33794;SDS011;51430;52.242;21.118;2023-02-28T05:33:03;36.00;;;25.30;;
33794;SDS011;51430;52.242;21.118;2023-02-28T05:35:49;35.30;;;24.70;;
33794;SDS011;51430;52.242;21.118;2023-02-28T05:38:36;34.30;;;24.20;;
33794;SDS011;51430;52.242;21.118;2023-02-28T05:41:24;36.70;;;25.60;;
33794;SDS011;51430;52.242;21.118;2023-02-28T05:44:12;44.30;;;28.10;;
33794;SDS011;51430;52.242;21.118;2023-02-28T05:46:59;37.70;;;25.70;;
33794;SDS011;51430;52.242;21.118;2023-02-28T05:49:46;36.60;;;25.40;;
33794;SDS011;51430;52.242;21.118;2023-02-28T05:52:32;37.90;;;26.60;;
33794;SDS011;51430;52.242;21.118;2023-02-28T05:55:19;36.10;;;26.00;;
33794;SDS011;51430;52.242;21.118;2023-02-28T05:58:06;38.90;;;25.30;;
33794;SDS011;51430;52.242;21.118;2023-02-28T06:00:53;35.00;;;25.30;;
33794;SDS011;51430;52.242;21.118;2023-02-28T06:03:39;33.40;;;24.40;;
33794;SDS011;51430;52.242;21.118;2023-02-28T06:06:26;35.90;;;25.00;;
33794;SDS011;51430;52.242;21.118;2023-02-28T06:09:13;32.30;;;24.00;;
33794;SDS011;51430;52.242;21.118;2023-02-28T06:12:00;32.00;;;23.80;;
33794;SDS011;51430;52.242;21.118;2023-02-28T06:14:51;31.70;;;23.60;;
33794;SDS011;51430;52.242;21.118;2023-02-28T06:17:38;31.70;;;24.00;;
33794;SDS011;51430;52.242;21.118;2023-02-28T06:20:25;34.20;;;25.00;;
33794;SDS011;51430;52.242;21.118;2023-02-28T06:23:15;33.80;;;25.10;;
33794;SDS011;51430;52.242;21.118;2023-02-28T06:26:02;33.50;;;25.50;;
33794;SDS011;51430;52.242;21.118;2023-02-28T06:28:48;34.70;;;25.90;;
33794;SDS011;51430;52.242;21.118;2023-02-28T06:31:35;35.20;;;26.20;;
33794;SDS011;51430;52.242;21.118;2023-02-28T06:34:22;33.30;;;25.80;;
33794;SDS011;51430;52.242;21.118;2023-02-28T06:37:09;35.90;;;26.00;;
33794;SDS011;51430;52.242;21.118;2023-02-28T06:39:57;35.10;;;25.80;;
33794;SDS011;51430;52.242;21.118;2023-02-28T06:42:43;34.60;;;26.10;;
33794;SDS011;51430;52.242;21.118;2023-02-28T06:45:30;37.70;;;25.70;;
33794;SDS011;51430;52.242;21.118;2023-02-28T06:48:17;32.60;;;26.00;;
33794;SDS011;51430;52.242;21.118;2023-02-28T06:51:05;36.00;;;26.50;;
33794;SDS011;51430;52.242;21.118;2023-02-28T06:53:53;34.90;;;26.00;;
33794;SDS011;51430;52.242;21.118;2023-02-28T06:56:40;36.50;;;26.20;;
33794;SDS011;51430;52.242;21.118;2023-02-28T06:59:27;37.70;;;27.40;;
33794;SDS011;51430;52.242;21.118;2023-02-28T07:02:14;35.10;;;26.00;;
33794;SDS011;51430;52.242;21.118;2023-02-28T07:05:00;29.80;;;22.30;;
33794;SDS011;51430;52.242;21.118;2023-02-28T07:07:47;23.10;;;17.80;;
33794;SDS011;51430;52.242;21.118;2023-02-28T07:10:38;26.80;;;19.40;;
33794;SDS011;51430;52.242;21.118;2023-02-28T07:13:25;21.40;;;16.20;;
33794;SDS011;51430;52.242;21.118;2023-02-28T07:16:13;20.50;;;14.20;;
33794;SDS011;51430;52.242;21.118;2023-02-28T07:19:00;18.90;;;15.00;;
33794;SDS011;51430;52.242;21.118;2023-02-28T07:21:47;17.50;;;13.60;;
33794;SDS011;51430;52.242;21.118;2023-02-28T07:24:34;13.50;;;10.00;;
33794;SDS011;51430;52.242;21.118;2023-02-28T07:27:20;13.80;;;10.10;;
33794;SDS011;51430;52.242;21.118;2023-02-28T07:30:11;11.20;;;9.30;;
33794;SDS011;51430;52.242;21.118;2023-02-28T07:34:33;9.70;;;7.00;;
33794;SDS011;51430;52.242;21.118;2023-02-28T07:37:20;9.80;;;7.90;;
33794;SDS011;51430;52.242;21.118;2023-02-28T07:40:07;10.80;;;9.00;;
33794;SDS011;51430;52.242;21.118;2023-02-28T07:42:58;10.00;;;8.20;;
33794;SDS011;51430;52.242;21.118;2023-02-28T07:45:46;10.90;;;8.50;;
33794;SDS011;51430;52.242;21.118;2023-02-28T07:48:33;10.10;;;7.70;;
33794;SDS011;51430;52.242;21.118;2023-02-28T07:51:20;8.30;;;7.00;;
33794;SDS011;51430;52.242;21.118;2023-02-28T07:54:06;8.50;;;7.60;;
33794;SDS011;51430;52.242;21.118;2023-02-28T07:56:53;8.80;;;7.80;;
33794;SDS011;51430;52.242;21.118;2023-02-28T07:59:39;7.70;;;6.70;;
33794;SDS011;51430;52.242;21.118;2023-02-28T08:02:26;8.90;;;6.80;;
33794;SDS011;51430;52.242;21.118;2023-02-28T08:05:13;8.30;;;6.90;;
33794;SDS011;51430;52.242;21.118;2023-02-28T08:08:00;7.90;;;7.10;;
33794;SDS011;51430;52.242;21.118;2023-02-28T08:10:46;9.00;;;7.50;;
33794;SDS011;51430;52.242;21.118;2023-02-28T08:13:33;7.80;;;6.90;;
33794;SDS011;51430;52.242;21.118;2023-02-28T08:16:20;7.20;;;6.50;;
33794;SDS011;51430;52.242;21.118;2023-02-28T08:19:08;8.00;;;6.90;;
33794;SDS011;51430;52.242;21.118;2023-02-28T08:21:55;7.60;;;6.30;;
33794;SDS011;51430;52.242;21.118;2023-02-28T08:24:42;7.40;;;6.30;;
33794;SDS011;51430;52.242;21.118;2023-02-28T08:27:29;7.80;;;7.00;;
33794;SDS011;51430;52.242;21.118;2023-02-28T08:30:16;7.10;;;6.40;;
33794;SDS011;51430;52.242;21.118;2023-02-28T08:33:02;9.10;;;6.20;;
33794;SDS011;51430;52.242;21.118;2023-02-28T08:35:52;8.20;;;6.80;;
33794;SDS011;51430;52.242;21.118;2023-02-28T08:38:39;7.90;;;7.10;;
33794;SDS011;51430;52.242;21.118;2023-02-28T08:41:26;9.00;;;6.60;;
33794;SDS011;51430;52.242;21.118;2023-02-28T08:44:13;8.60;;;7.10;;
33794;SDS011;51430;52.242;21.118;2023-02-28T08:47:00;7.80;;;7.00;;
33794;SDS011;51430;52.242;21.118;2023-02-28T08:49:47;7.70;;;6.90;;
33794;SDS011;51430;52.242;21.118;2023-02-28T08:52:34;7.80;;;6.80;;
33794;SDS011;51430;52.242;21.118;2023-02-28T08:55:20;7.90;;;7.10;;
33794;SDS011;51430;52.242;21.118;2023-02-28T08:58:07;8.20;;;7.40;;
33794;SDS011;51430;52.242;21.118;2023-02-28T09:00:53;7.90;;;7.10;;
33794;SDS011;51430;52.242;21.118;2023-02-28T09:03:41;8.80;;;7.40;;
33794;SDS011;51430;52.242;21.118;2023-02-28T09:06:28;9.00;;;7.30;;
33794;SDS011;51430;52.242;21.118;2023-02-28T09:09:15;8.20;;;7.40;;
33794;SDS011;51430;52.242;21.118;2023-02-28T09:12:02;8.20;;;7.40;;
33794;SDS011;51430;52.242;21.118;2023-02-28T09:14:49;8.90;;;7.00;;
33794;SDS011;51430;52.242;21.118;2023-02-28T09:17:36;7.90;;;7.10;;
33794;SDS011;51430;52.242;21.118;2023-02-28T09:20:22;8.50;;;7.20;;
33794;SDS011;51430;52.242;21.118;2023-02-28T09:23:09;7.70;;;6.80;;
33794;SDS011;51430;52.242;21.118;2023-02-28T09:25:59;11.80;;;7.80;;
33794;SDS011;51430;52.242;21.118;2023-02-28T09:30:43;7.60;;;6.80;;
33794;SDS011;51430;52.242;21.118;2023-02-28T09:33:32;7.90;;;7.10;;
33794;SDS011;51430;52.242;21.118;2023-02-28T09:36:20;8.30;;;7.40;;
33794;SDS011;51430;52.242;21.118;2023-02-28T09:39:10;9.40;;;7.70;;
33794;SDS011;51430;52.242;21.118;2023-02-28T09:41:58;9.50;;;7.50;;
33794;SDS011;51430;52.242;21.118;2023-02-28T09:44:45;8.70;;;7.60;;
33794;SDS011;51430;52.242;21.118;2023-02-28T09:47:40;9.10;;;7.70;;
33794;SDS011;51430;52.242;21.118;2023-02-28T09:50:43;8.30;;;7.50;;
33794;SDS011;51430;52.242;21.118;2023-02-28T09:53:37;9.60;;;7.50;;
33794;SDS011;51430;52.242;21.118;2023-02-28T10:06:19;8.60;;;7.70;;
33794;SDS011;51430;52.242;21.118;2023-02-28T10:09:17;8.80;;;7.90;;
33794;SDS011;51430;52.242;21.118;2023-02-28T10:12:08;11.40;;;8.30;;
33794;SDS011;51430;52.242;21.118;2023-02-28T10:14:57;10.80;;;8.20;;
33794;SDS011;51430;52.242;21.118;2023-02-28T10:19:11;8.30;;;7.50;;
33794;SDS011;51430;52.242;21.118;2023-02-28T10:22:13;9.80;;;8.00;;
33794;SDS011;51430;52.242;21.118;2023-02-28T10:25:05;9.30;;;8.00;;
33794;SDS011;51430;52.242;21.118;2023-02-28T10:28:13;8.80;;;7.40;;
33794;SDS011;51430;52.242;21.118;2023-02-28T10:31:01;9.10;;;8.10;;
33794;SDS011;51430;52.242;21.118;2023-02-28T10:33:49;10.40;;;8.00;;
33794;SDS011;51430;52.242;21.118;2023-02-28T10:36:36;9.10;;;8.30;;
33794;SDS011;51430;52.242;21.118;2023-02-28T10:42:25;10.20;;;9.10;;
33794;SDS011;51430;52.242;21.118;2023-02-28T10:45:14;11.70;;;8.90;;
33794;SDS011;51430;52.242;21.118;2023-02-28T10:48:03;13.40;;;10.60;;
33794;SDS011;51430;52.242;21.118;2023-02-28T10:50:56;12.50;;;9.40;;
33794;SDS011;51430;52.242;21.118;2023-02-28T10:53:53;12.90;;;8.60;;
33794;SDS011;51430;52.242;21.118;2023-02-28T10:57:31;11.20;;;9.00;;
33794;SDS011;51430;52.242;21.118;2023-02-28T11:00:26;12.30;;;9.00;;
33794;SDS011;51430;52.242;21.118;2023-02-28T11:03:22;10.70;;;9.50;;
33794;SDS011;51430;52.242;21.118;2023-02-28T11:06:22;13.00;;;9.70;;
33794;SDS011;51430;52.242;21.118;2023-02-28T11:09:26;10.30;;;9.30;;
33794;SDS011;51430;52.242;21.118;2023-02-28T11:12:27;11.20;;;9.50;;
33794;SDS011;51430;52.242;21.118;2023-02-28T11:21:09;13.40;;;9.80;;
33794;SDS011;51430;52.242;21.118;2023-02-28T11:24:04;10.20;;;9.20;;
33794;SDS011;51430;52.242;21.118;2023-02-28T11:27:00;12.90;;;9.50;;
33794;SDS011;51430;52.242;21.118;2023-02-28T11:29:47;10.10;;;9.10;;
33794;SDS011;51430;52.242;21.118;2023-02-28T11:32:39;13.10;;;10.40;;
33794;SDS011;51430;52.242;21.118;2023-02-28T11:35:36;13.80;;;9.90;;
33794;SDS011;51430;52.242;21.118;2023-02-28T11:38:26;12.30;;;9.60;;
33794;SDS011;51430;52.242;21.118;2023-02-28T11:47:51;11.60;;;10.30;;
33794;SDS011;51430;52.242;21.118;2023-02-28T11:50:45;11.20;;;9.60;;
33794;SDS011;51430;52.242;21.118;2023-02-28T11:56:37;11.50;;;9.80;;
33794;SDS011;51430;52.242;21.118;2023-02-28T12:02:26;12.40;;;10.90;;
33794;SDS011;51430;52.242;21.118;2023-02-28T12:05:21;11.40;;;9.30;;
33794;SDS011;51430;52.242;21.118;2023-02-28T12:08:21;10.80;;;9.40;;
33794;SDS011;51430;52.242;21.118;2023-02-28T12:17:04;10.30;;;9.20;;
33794;SDS011;51430;52.242;21.118;2023-02-28T12:26:43;13.00;;;9.50;;
33794;SDS011;51430;52.242;21.118;2023-02-28T12:29:34;10.50;;;9.30;;
33794;SDS011;51430;52.242;21.118;2023-02-28T12:32:32;13.80;;;9.60;;
33794;SDS011;51430;52.242;21.118;2023-02-28T12:35:25;10.40;;;9.00;;
33794;SDS011;51430;52.242;21.118;2023-02-28T12:38:22;10.50;;;9.10;;
33794;SDS011;51430;52.242;21.118;2023-02-28T12:41:14;10.90;;;9.70;;
33794;SDS011;51430;52.242;21.118;2023-02-28T12:47:27;11.70;;;9.80;;
33794;SDS011;51430;52.242;21.118;2023-02-28T12:50:13;13.10;;;9.60;;
33794;SDS011;51430;52.242;21.118;2023-02-28T12:59:40;11.00;;;9.40;;
33794;SDS011;51430;52.242;21.118;2023-02-28T13:03:01;12.10;;;9.30;;
33794;SDS011;51430;52.242;21.118;2023-02-28T13:06:03;11.40;;;9.40;;
33794;SDS011;51430;52.242;21.118;2023-02-28T13:08:59;12.40;;;9.60;;
33794;SDS011;51430;52.242;21.118;2023-02-28T13:11:54;13.20;;;9.50;;
33794;SDS011;51430;52.242;21.118;2023-02-28T13:14:41;13.20;;;9.50;;
33794;SDS011;51430;52.242;21.118;2023-02-28T13:17:28;17.30;;;10.80;;
33794;SDS011;51430;52.242;21.118;2023-02-28T13:20:37;12.20;;;9.80;;
33794;SDS011;51430;52.242;21.118;2023-02-28T13:23:37;11.50;;;9.60;;
33794;SDS011;51430;52.242;21.118;2023-02-28T13:29:32;14.00;;;10.00;;
33794;SDS011;51430;52.242;21.118;2023-02-28T13:35:13;16.70;;;10.30;;
33794;SDS011;51430;52.242;21.118;2023-02-28T13:44:21;11.80;;;9.20;;
33794;SDS011;51430;52.242;21.118;2023-02-28T13:59:23;13.40;;;10.00;;
33794;SDS011;51430;52.242;21.118;2023-02-28T14:05:41;14.60;;;9.90;;
33794;SDS011;51430;52.242;21.118;2023-02-28T14:08:28;11.60;;;9.90;;
33794;SDS011;51430;52.242;21.118;2023-02-28T14:11:23;13.60;;;9.80;;
33794;SDS011;51430;52.242;21.118;2023-02-28T14:17:23;12.20;;;10.10;;
33794;SDS011;51430;52.242;21.118;2023-02-28T14:20:15;14.00;;;10.00;;
33794;SDS011;51430;52.242;21.118;2023-02-28T14:23:05;12.90;;;9.90;;
33794;SDS011;51430;52.242;21.118;2023-02-28T14:26:06;11.20;;;9.80;;
33794;SDS011;51430;52.242;21.118;2023-02-28T14:32:15;13.90;;;10.40;;
33794;SDS011;51430;52.242;21.118;2023-02-28T14:38:04;13.90;;;10.10;;
33794;SDS011;51430;52.242;21.118;2023-02-28T14:40:54;12.80;;;10.80;;
33794;SDS011;51430;52.242;21.118;2023-02-28T14:43:54;13.20;;;11.40;;
33794;SDS011;51430;52.242;21.118;2023-02-28T14:46:46;15.50;;;12.90;;
33794;SDS011;51430;52.242;21.118;2023-02-28T14:49:37;14.50;;;11.10;;
33794;SDS011;51430;52.242;21.118;2023-02-28T14:52:30;12.90;;;10.40;;
33794;SDS011;51430;52.242;21.118;2023-02-28T14:55:19;12.00;;;10.20;;
33794;SDS011;51430;52.242;21.118;2023-02-28T14:58:17;13.50;;;10.10;;
33794;SDS011;51430;52.242;21.118;2023-02-28T15:01:10;12.90;;;10.60;;
33794;SDS011;51430;52.242;21.118;2023-02-28T15:04:00;14.70;;;10.20;;
33794;SDS011;51430;52.242;21.118;2023-02-28T15:07:06;11.90;;;10.20;;
33794;SDS011;51430;52.242;21.118;2023-02-28T15:10:08;12.00;;;10.20;;
33794;SDS011;51430;52.242;21.118;2023-02-28T15:13:10;12.10;;;10.40;;
33794;SDS011;51430;52.242;21.118;2023-02-28T15:16:04;14.40;;;10.80;;
33794;SDS011;51430;52.242;21.118;2023-02-28T15:21:45;12.80;;;10.20;;
33794;SDS011;51430;52.242;21.118;2023-02-28T15:24:40;11.60;;;9.80;;
33794;SDS011;51430;52.242;21.118;2023-02-28T15:27:31;13.60;;;10.30;;
33794;SDS011;51430;52.242;21.118;2023-02-28T15:30:20;13.80;;;9.90;;
33794;SDS011;51430;52.242;21.118;2023-02-28T15:33:22;13.20;;;10.50;;
33794;SDS011;51430;52.242;21.118;2023-02-28T15:36:14;13.60;;;10.10;;
33794;SDS011;51430;52.242;21.118;2023-02-28T15:39:18;13.10;;;10.20;;
33794;SDS011;51430;52.242;21.118;2023-02-28T15:42:10;15.10;;;10.00;;
33794;SDS011;51430;52.242;21.118;2023-02-28T15:48:59;14.50;;;10.00;;
33794;SDS011;51430;52.242;21.118;2023-02-28T15:51:46;19.30;;;10.60;;
33794;SDS011;51430;52.242;21.118;2023-02-28T15:54:36;16.10;;;9.80;;
33794;SDS011;51430;52.242;21.118;2023-02-28T15:57:24;13.10;;;9.70;;
33794;SDS011;51430;52.242;21.118;2023-02-28T16:00:18;13.60;;;9.90;;
33794;SDS011;51430;52.242;21.118;2023-02-28T16:03:23;15.40;;;10.50;;
33794;SDS011;51430;52.242;21.118;2023-02-28T16:06:32;12.10;;;9.50;;
33794;SDS011;51430;52.242;21.118;2023-02-28T16:09:23;14.20;;;10.60;;
33794;SDS011;51430;52.242;21.118;2023-02-28T16:12:10;15.70;;;10.50;;
33794;SDS011;51430;52.242;21.118;2023-02-28T16:15:47;15.20;;;9.90;;
33794;SDS011;51430;52.242;21.118;2023-02-28T16:18:49;12.90;;;9.10;;
33794;SDS011;51430;52.242;21.118;2023-02-28T16:21:36;13.70;;;10.60;;
33794;SDS011;51430;52.242;21.118;2023-02-28T16:24:27;14.20;;;11.40;;
33794;SDS011;51430;52.242;21.118;2023-02-28T16:27:20;13.80;;;10.90;;
33794;SDS011;51430;52.242;21.118;2023-02-28T16:30:20;16.40;;;11.70;;
33794;SDS011;51430;52.242;21.118;2023-02-28T16:33:09;16.00;;;11.60;;
33794;SDS011;51430;52.242;21.118;2023-02-28T16:35:55;16.10;;;12.30;;
33794;SDS011;51430;52.242;21.118;2023-02-28T16:38:43;16.20;;;13.00;;
33794;SDS011;51430;52.242;21.118;2023-02-28T16:41:37;17.30;;;13.50;;
33794;SDS011;51430;52.242;21.118;2023-02-28T16:44:35;15.50;;;12.50;;
33794;SDS011;51430;52.242;21.118;2023-02-28T16:47:23;17.10;;;13.00;;
33794;SDS011;51430;52.242;21.118;2023-02-28T16:50:20;17.70;;;13.10;;
33794;SDS011;51430;52.242;21.118;2023-02-28T16:53:12;16.40;;;12.90;;
33794;SDS011;51430;52.242;21.118;2023-02-28T16:56:03;16.20;;;12.90;;
33794;SDS011;51430;52.242;21.118;2023-02-28T16:58:53;16.40;;;13.50;;
33794;SDS011;51430;52.242;21.118;2023-02-28T17:01:45;15.50;;;13.30;;
33794;SDS011;51430;52.242;21.118;2023-02-28T17:04:31;19.90;;;14.80;;
33794;SDS011;51430;52.242;21.118;2023-02-28T17:07:18;18.90;;;14.00;;
33794;SDS011;51430;52.242;21.118;2023-02-28T17:10:11;18.40;;;14.80;;
33794;SDS011;51430;52.242;21.118;2023-02-28T17:13:01;17.90;;;14.20;;
33794;SDS011;51430;52.242;21.118;2023-02-28T17:15:59;18.20;;;14.30;;
33794;SDS011;51430;52.242;21.118;2023-02-28T17:18:47;17.00;;;13.70;;
33794;SDS011;51430;52.242;21.118;2023-02-28T17:21:35;18.40;;;14.80;;
33794;SDS011;51430;52.242;21.118;2023-02-28T17:24:23;17.20;;;14.00;;
33794;SDS011;51430;52.242;21.118;2023-02-28T17:27:17;17.60;;;15.00;;
33794;SDS011;51430;52.242;21.118;2023-02-28T17:33:00;19.90;;;15.80;;
33794;SDS011;51430;52.242;21.118;2023-02-28T17:35:48;17.70;;;15.20;;
33794;SDS011;51430;52.242;21.118;2023-02-28T17:38:34;18.70;;;15.60;;
33794;SDS011;51430;52.242;21.118;2023-02-28T17:41:24;18.70;;;15.90;;
33794;SDS011;51430;52.242;21.118;2023-02-28T17:44:12;18.00;;;15.60;;
33794;SDS011;51430;52.242;21.118;2023-02-28T17:46:59;17.00;;;13.80;;
33794;SDS011;51430;52.242;21.118;2023-02-28T17:49:46;18.10;;;15.70;;
33794;SDS011;51430;52.242;21.118;2023-02-28T17:52:33;19.00;;;14.60;;
33794;SDS011;51430;52.242;21.118;2023-02-28T17:55:22;20.40;;;16.00;;
33794;SDS011;51430;52.242;21.118;2023-02-28T17:58:10;21.90;;;16.60;;
33794;SDS011;51430;52.242;21.118;2023-02-28T18:01:00;21.80;;;16.90;;
33794;SDS011;51430;52.242;21.118;2023-02-28T18:03:49;21.70;;;16.50;;
33794;SDS011;51430;52.242;21.118;2023-02-28T18:06:37;26.20;;;18.20;;
33794;SDS011;51430;52.242;21.118;2023-02-28T18:09:33;24.60;;;20.30;;
33794;SDS011;51430;52.242;21.118;2023-02-28T18:12:19;25.70;;;19.80;;
33794;SDS011;51430;52.242;21.118;2023-02-28T18:25:50;24.10;;;16.80;;
33794;SDS011;51430;52.242;21.118;2023-02-28T18:28:37;27.10;;;19.40;;
33794;SDS011;51430;52.242;21.118;2023-02-28T18:34:50;26.70;;;19.50;;
33794;SDS011;51430;52.242;21.118;2023-02-28T18:50:26;22.40;;;16.30;;
33794;SDS011;51430;52.242;21.118;2023-02-28T20:29:55;499.50;;;252.50;;
33794;SDS011;51430;52.242;21.118;2023-02-28T20:58:08;47.40;;;30.30;;
33794;SDS011;51430;52.242;21.118;2023-02-28T21:12:08;56.20;;;32.80;;
33794;SDS011;51430;52.242;21.118;2023-02-28T21:26:12;41.80;;;29.80;;
33794;SDS011;51430;52.242;21.118;2023-02-28T21:39:41;48.00;;;32.90;;
33794;SDS011;51430;52.242;21.118;2023-02-28T21:42:41;44.60;;;31.10;;
33794;SDS011;51430;52.242;21.118;2023-02-28T21:57:13;44.60;;;30.20;;